sensor_id;sensor_type;location;lat;lon;timestamp;P1;P2;P0
77515;PMS5003;66627;29.424;-98.496;2023-01-31T00:00:06;9;7;
77515;PMS5003;66627;29.424;-98.496;2023-01-31T00:02:31;9;8;
77515;PMS5003;66627;29.424;-98.496;2023-01-31T00:04:57;8;8;
77515;PMS5003;66627;29.424;-98.496;2023-01-31T00:07:21;8;7;
77515;PMS5003;66627;29.424;-98.496;2023-01-31T00:09:46;8;7;
77515;PMS5003;66627;29.424;-98.496;2023-01-31T00:12:12;8;8;
77515;PMS5003;66627;29.424;-98.496;2023-01-31T00:14:37;11;11;
77515;PMS5003;66627;29.424;-98.496;2023-01-31T00:17:02;11;11;
77515;PMS5003;66627;29.424;-98.496;2023-01-31T00:19:27;15;13;
77515;PMS5003;66627;29.424;-98.496;2023-01-31T00:21:53;11;9;
77515;PMS5003;66627;29.424;-98.496;2023-01-31T00:24:18;10;10;
77515;PMS5003;66627;29.424;-98.496;2023-01-31T00:26:43;12;11;
77515;PMS5003;66627;29.424;-98.496;2023-01-31T00:29:08;12;10;
77515;PMS5003;66627;29.424;-98.496;2023-01-31T00:31:33;14;13;
77515;PMS5003;66627;29.424;-98.496;2023-01-31T00:33:59;13;13;
77515;PMS5003;66627;29.424;-98.496;2023-01-31T00:36:25;13;12;
77515;PMS5003;66627;29.424;-98.496;2023-01-31T00:38:50;13;11;
77515;PMS5003;66627;29.424;-98.496;2023-01-31T00:41:16;11;11;
77515;PMS5003;66627;29.424;-98.496;2023-01-31T00:43:40;13;13;
77515;PMS5003;66627;29.424;-98.496;2023-01-31T00:46:05;12;12;
77515;PMS5003;66627;29.424;-98.496;2023-01-31T00:48:31;11;9;
77515;PMS5003;66627;29.424;-98.496;2023-01-31T00:50:56;14;13;
77515;PMS5003;66627;29.424;-98.496;2023-01-31T00:53:21;14;14;
77515;PMS5003;66627;29.424;-98.496;2023-01-31T00:55:47;14;12;
77515;PMS5003;66627;29.424;-98.496;2023-01-31T00:58:12;12;12;
77515;PMS5003;66627;29.424;-98.496;2023-01-31T01:00:37;11;11;
77515;PMS5003;66627;29.424;-98.496;2023-01-31T01:03:02;7;7;
77515;PMS5003;66627;29.424;-98.496;2023-01-31T01:05:28;9;9;
77515;PMS5003;66627;29.424;-98.496;2023-01-31T01:07:53;8;8;
77515;PMS5003;66627;29.424;-98.496;2023-01-31T01:10:19;9;8;
77515;PMS5003;66627;29.424;-98.496;2023-01-31T01:12:45;9;8;
77515;PMS5003;66627;29.424;-98.496;2023-01-31T01:15:10;8;7;
77515;PMS5003;66627;29.424;-98.496;2023-01-31T01:17:35;10;10;
77515;PMS5003;66627;29.424;-98.496;2023-01-31T01:20:01;7;7;
77515;PMS5003;66627;29.424;-98.496;2023-01-31T01:22:27;9;8;
77515;PMS5003;66627;29.424;-98.496;2023-01-31T01:24:53;6;6;
77515;PMS5003;66627;29.424;-98.496;2023-01-31T01:27:17;10;8;
77515;PMS5003;66627;29.424;-98.496;2023-01-31T01:29:42;8;7;
77515;PMS5003;66627;29.424;-98.496;2023-01-31T01:32:08;7;7;
77515;PMS5003;66627;29.424;-98.496;2023-01-31T01:34:33;9;9;
77515;PMS5003;66627;29.424;-98.496;2023-01-31T01:36:59;7;7;
77515;PMS5003;66627;29.424;-98.496;2023-01-31T01:39:24;8;8;
77515;PMS5003;66627;29.424;-98.496;2023-01-31T01:41:49;11;8;
77515;PMS5003;66627;29.424;-98.496;2023-01-31T01:46:41;12;9;
77515;PMS5003;66627;29.424;-98.496;2023-01-31T01:49:18;7;7;
77515;PMS5003;66627;29.424;-98.496;2023-01-31T01:51:31;9;9;
77515;PMS5003;66627;29.424;-98.496;2023-01-31T01:53:57;10;9;
77515;PMS5003;66627;29.424;-98.496;2023-01-31T01:56:22;7;7;
77515;PMS5003;66627;29.424;-98.496;2023-01-31T01:58:49;9;6;
77515;PMS5003;66627;29.424;-98.496;2023-01-31T02:01:12;7;7;
77515;PMS5003;66627;29.424;-98.496;2023-01-31T02:03:37;6;6;
77515;PMS5003;66627;29.424;-98.496;2023-01-31T02:06:03;7;7;
77515;PMS5003;66627;29.424;-98.496;2023-01-31T02:08:28;9;8;
77515;PMS5003;66627;29.424;-98.496;2023-01-31T02:10:54;7;7;
77515;PMS5003;66627;29.424;-98.496;2023-01-31T02:13:18;8;8;
77515;PMS5003;66627;29.424;-98.496;2023-01-31T02:15:44;9;7;
77515;PMS5003;66627;29.424;-98.496;2023-01-31T02:18:09;10;10;
77515;PMS5003;66627;29.424;-98.496;2023-01-31T02:23:05;9;7;
77515;PMS5003;66627;29.424;-98.496;2023-01-31T02:30:30;10;7;
77515;PMS5003;66627;29.424;-98.496;2023-01-31T02:32:44;9;9;
77515;PMS5003;66627;29.424;-98.496;2023-01-31T02:35:09;12;12;
77515;PMS5003;66627;29.424;-98.496;2023-01-31T02:37:33;10;9;
77515;PMS5003;66627;29.424;-98.496;2023-01-31T02:40:00;8;8;
77515;PMS5003;66627;29.424;-98.496;2023-01-31T02:42:24;12;11;
77515;PMS5003;66627;29.424;-98.496;2023-01-31T02:44:49;14;12;
77515;PMS5003;66627;29.424;-98.496;2023-01-31T02:47:16;9;9;
77515;PMS5003;66627;29.424;-98.496;2023-01-31T02:49:39;12;10;
77515;PMS5003;66627;29.424;-98.496;2023-01-31T02:52:07;8;7;
77515;PMS5003;66627;29.424;-98.496;2023-01-31T02:54:29;10;7;
77515;PMS5003;66627;29.424;-98.496;2023-01-31T02:56:55;11;11;
77515;PMS5003;66627;29.424;-98.496;2023-01-31T02:59:21;9;9;
77515;PMS5003;66627;29.424;-98.496;2023-01-31T03:01:46;7;6;
77515;PMS5003;66627;29.424;-98.496;2023-01-31T03:04:11;13;9;
77515;PMS5003;66627;29.424;-98.496;2023-01-31T03:06:45;9;9;
77515;PMS5003;66627;29.424;-98.496;2023-01-31T03:09:03;7;7;
77515;PMS5003;66627;29.424;-98.496;2023-01-31T03:11:26;7;7;
77515;PMS5003;66627;29.424;-98.496;2023-01-31T03:13:53;8;8;
77515;PMS5003;66627;29.424;-98.496;2023-01-31T03:16:19;7;7;
77515;PMS5003;66627;29.424;-98.496;2023-01-31T03:18:48;7;7;
77515;PMS5003;66627;29.424;-98.496;2023-01-31T03:21:08;9;9;
77515;PMS5003;66627;29.424;-98.496;2023-01-31T03:23:33;8;8;
77515;PMS5003;66627;29.424;-98.496;2023-01-31T03:25:59;10;10;
77515;PMS5003;66627;29.424;-98.496;2023-01-31T03:28:26;8;6;
77515;PMS5003;66627;29.424;-98.496;2023-01-31T03:30:50;7;7;
77515;PMS5003;66627;29.424;-98.496;2023-01-31T03:33:16;7;7;
77515;PMS5003;66627;29.424;-98.496;2023-01-31T03:35:40;11;10;
77515;PMS5003;66627;29.424;-98.496;2023-01-31T03:38:08;8;7;
77515;PMS5003;66627;29.424;-98.496;2023-01-31T03:40:33;8;8;
77515;PMS5003;66627;29.424;-98.496;2023-01-31T03:42:57;7;7;
77515;PMS5003;66627;29.424;-98.496;2023-01-31T03:45:25;9;7;
77515;PMS5003;66627;29.424;-98.496;2023-01-31T03:47:48;9;8;
77515;PMS5003;66627;29.424;-98.496;2023-01-31T03:50:14;8;7;
77515;PMS5003;66627;29.424;-98.496;2023-01-31T03:52:39;9;7;
77515;PMS5003;66627;29.424;-98.496;2023-01-31T03:55:05;8;8;
77515;PMS5003;66627;29.424;-98.496;2023-01-31T03:57:30;6;6;
77515;PMS5003;66627;29.424;-98.496;2023-01-31T03:59:55;7;7;
77515;PMS5003;66627;29.424;-98.496;2023-01-31T04:02:20;8;8;
77515;PMS5003;66627;29.424;-98.496;2023-01-31T04:04:46;6;6;
77515;PMS5003;66627;29.424;-98.496;2023-01-31T04:07:10;7;6;
77515;PMS5003;66627;29.424;-98.496;2023-01-31T04:09:36;11;8;
77515;PMS5003;66627;29.424;-98.496;2023-01-31T04:12:02;8;6;
77515;PMS5003;66627;29.424;-98.496;2023-01-31T04:14:27;10;8;
77515;PMS5003;66627;29.424;-98.496;2023-01-31T04:16:52;7;7;
77515;PMS5003;66627;29.424;-98.496;2023-01-31T04:19:17;9;7;
77515;PMS5003;66627;29.424;-98.496;2023-01-31T04:21:43;8;8;
77515;PMS5003;66627;29.424;-98.496;2023-01-31T04:24:08;7;5;
77515;PMS5003;66627;29.424;-98.496;2023-01-31T04:26:34;5;5;
77515;PMS5003;66627;29.424;-98.496;2023-01-31T04:28:59;6;5;
77515;PMS5003;66627;29.424;-98.496;2023-01-31T04:31:24;6;6;
77515;PMS5003;66627;29.424;-98.496;2023-01-31T04:33:50;6;6;
77515;PMS5003;66627;29.424;-98.496;2023-01-31T04:36:15;7;7;
77515;PMS5003;66627;29.424;-98.496;2023-01-31T04:38:40;7;7;
77515;PMS5003;66627;29.424;-98.496;2023-01-31T04:41:06;7;7;
77515;PMS5003;66627;29.424;-98.496;2023-01-31T04:43:31;7;7;
77515;PMS5003;66627;29.424;-98.496;2023-01-31T04:45:57;5;5;
77515;PMS5003;66627;29.424;-98.496;2023-01-31T04:48:22;5;5;
77515;PMS5003;66627;29.424;-98.496;2023-01-31T04:50:47;8;6;
77515;PMS5003;66627;29.424;-98.496;2023-01-31T04:53:13;7;7;
77515;PMS5003;66627;29.424;-98.496;2023-01-31T04:55:38;12;6;
77515;PMS5003;66627;29.424;-98.496;2023-01-31T04:58:04;6;6;
77515;PMS5003;66627;29.424;-98.496;2023-01-31T05:00:29;6;6;
77515;PMS5003;66627;29.424;-98.496;2023-01-31T05:02:54;9;9;
77515;PMS5003;66627;29.424;-98.496;2023-01-31T05:05:20;6;6;
77515;PMS5003;66627;29.424;-98.496;2023-01-31T05:07:45;7;6;
77515;PMS5003;66627;29.424;-98.496;2023-01-31T05:10:11;6;6;
77515;PMS5003;66627;29.424;-98.496;2023-01-31T05:12:36;6;6;
77515;PMS5003;66627;29.424;-98.496;2023-01-31T05:15:01;8;7;
77515;PMS5003;66627;29.424;-98.496;2023-01-31T05:17:26;8;7;
77515;PMS5003;66627;29.424;-98.496;2023-01-31T05:19:52;10;9;
77515;PMS5003;66627;29.424;-98.496;2023-01-31T05:22:17;7;6;
77515;PMS5003;66627;29.424;-98.496;2023-01-31T05:24:42;6;6;
77515;PMS5003;66627;29.424;-98.496;2023-01-31T05:27:08;10;8;
77515;PMS5003;66627;29.424;-98.496;2023-01-31T05:29:33;7;7;
77515;PMS5003;66627;29.424;-98.496;2023-01-31T05:31:59;8;7;
77515;PMS5003;66627;29.424;-98.496;2023-01-31T05:34:24;7;7;
77515;PMS5003;66627;29.424;-98.496;2023-01-31T05:36:49;7;5;
77515;PMS5003;66627;29.424;-98.496;2023-01-31T05:39:15;7;6;
77515;PMS5003;66627;29.424;-98.496;2023-01-31T05:41:40;9;8;
77515;PMS5003;66627;29.424;-98.496;2023-01-31T05:44:05;8;8;
77515;PMS5003;66627;29.424;-98.496;2023-01-31T05:46:31;7;7;
77515;PMS5003;66627;29.424;-98.496;2023-01-31T05:48:57;6;6;
77515;PMS5003;66627;29.424;-98.496;2023-01-31T05:51:21;9;8;
77515;PMS5003;66627;29.424;-98.496;2023-01-31T05:53:47;7;5;
77515;PMS5003;66627;29.424;-98.496;2023-01-31T05:56:12;7;7;
77515;PMS5003;66627;29.424;-98.496;2023-01-31T05:58:38;8;8;
77515;PMS5003;66627;29.424;-98.496;2023-01-31T06:01:03;9;9;
77515;PMS5003;66627;29.424;-98.496;2023-01-31T06:03:28;7;7;
77515;PMS5003;66627;29.424;-98.496;2023-01-31T06:05:53;7;7;
77515;PMS5003;66627;29.424;-98.496;2023-01-31T06:08:18;9;8;
77515;PMS5003;66627;29.424;-98.496;2023-01-31T06:10:44;7;6;
77515;PMS5003;66627;29.424;-98.496;2023-01-31T06:13:09;8;8;
77515;PMS5003;66627;29.424;-98.496;2023-01-31T06:15:35;6;5;
77515;PMS5003;66627;29.424;-98.496;2023-01-31T06:18:00;6;6;
77515;PMS5003;66627;29.424;-98.496;2023-01-31T06:20:25;8;8;
77515;PMS5003;66627;29.424;-98.496;2023-01-31T06:22:50;8;8;
77515;PMS5003;66627;29.424;-98.496;2023-01-31T06:25:16;9;9;
77515;PMS5003;66627;29.424;-98.496;2023-01-31T06:27:41;9;8;
77515;PMS5003;66627;29.424;-98.496;2023-01-31T06:30:07;10;10;
77515;PMS5003;66627;29.424;-98.496;2023-01-31T06:32:31;10;10;
77515;PMS5003;66627;29.424;-98.496;2023-01-31T06:34:57;7;7;
77515;PMS5003;66627;29.424;-98.496;2023-01-31T06:37:22;8;8;
77515;PMS5003;66627;29.424;-98.496;2023-01-31T06:39:47;8;8;
77515;PMS5003;66627;29.424;-98.496;2023-01-31T06:42:13;10;10;
77515;PMS5003;66627;29.424;-98.496;2023-01-31T06:44:38;8;8;
77515;PMS5003;66627;29.424;-98.496;2023-01-31T06:47:03;8;8;
77515;PMS5003;66627;29.424;-98.496;2023-01-31T06:49:28;12;10;
77515;PMS5003;66627;29.424;-98.496;2023-01-31T06:51:54;7;7;
77515;PMS5003;66627;29.424;-98.496;2023-01-31T06:54:19;11;10;
77515;PMS5003;66627;29.424;-98.496;2023-01-31T06:56:45;6;6;
77515;PMS5003;66627;29.424;-98.496;2023-01-31T06:59:10;7;7;
77515;PMS5003;66627;29.424;-98.496;2023-01-31T07:01:35;9;7;
77515;PMS5003;66627;29.424;-98.496;2023-01-31T07:04:01;8;8;
77515;PMS5003;66627;29.424;-98.496;2023-01-31T07:06:26;7;7;
77515;PMS5003;66627;29.424;-98.496;2023-01-31T07:08:51;9;7;
77515;PMS5003;66627;29.424;-98.496;2023-01-31T07:11:17;8;8;
77515;PMS5003;66627;29.424;-98.496;2023-01-31T07:13:42;9;9;
77515;PMS5003;66627;29.424;-98.496;2023-01-31T07:16:09;6;6;
77515;PMS5003;66627;29.424;-98.496;2023-01-31T07:18:33;7;7;
77515;PMS5003;66627;29.424;-98.496;2023-01-31T07:20:59;6;6;
77515;PMS5003;66627;29.424;-98.496;2023-01-31T07:23:25;11;11;
77515;PMS5003;66627;29.424;-98.496;2023-01-31T07:25:50;7;7;
77515;PMS5003;66627;29.424;-98.496;2023-01-31T07:28:16;7;7;
77515;PMS5003;66627;29.424;-98.496;2023-01-31T07:30:41;9;8;
77515;PMS5003;66627;29.424;-98.496;2023-01-31T07:33:06;8;7;
77515;PMS5003;66627;29.424;-98.496;2023-01-31T07:35:31;10;10;
77515;PMS5003;66627;29.424;-98.496;2023-01-31T07:37:57;10;9;
77515;PMS5003;66627;29.424;-98.496;2023-01-31T07:40:22;9;9;
77515;PMS5003;66627;29.424;-98.496;2023-01-31T07:42:47;8;8;
77515;PMS5003;66627;29.424;-98.496;2023-01-31T07:45:13;10;9;
77515;PMS5003;66627;29.424;-98.496;2023-01-31T07:47:38;9;9;
77515;PMS5003;66627;29.424;-98.496;2023-01-31T07:50:03;10;9;
77515;PMS5003;66627;29.424;-98.496;2023-01-31T07:52:29;8;6;
77515;PMS5003;66627;29.424;-98.496;2023-01-31T07:54:53;11;11;
77515;PMS5003;66627;29.424;-98.496;2023-01-31T07:57:19;12;10;
77515;PMS5003;66627;29.424;-98.496;2023-01-31T07:59:45;10;9;
77515;PMS5003;66627;29.424;-98.496;2023-01-31T08:02:11;8;8;
77515;PMS5003;66627;29.424;-98.496;2023-01-31T08:04:36;8;8;
77515;PMS5003;66627;29.424;-98.496;2023-01-31T08:07:01;6;6;
77515;PMS5003;66627;29.424;-98.496;2023-01-31T08:09:26;8;8;
77515;PMS5003;66627;29.424;-98.496;2023-01-31T08:11:52;7;7;
77515;PMS5003;66627;29.424;-98.496;2023-01-31T08:14:17;8;7;
77515;PMS5003;66627;29.424;-98.496;2023-01-31T08:16:42;8;8;
77515;PMS5003;66627;29.424;-98.496;2023-01-31T08:19:07;7;6;
77515;PMS5003;66627;29.424;-98.496;2023-01-31T08:21:33;6;6;
77515;PMS5003;66627;29.424;-98.496;2023-01-31T08:23:58;7;6;
77515;PMS5003;66627;29.424;-98.496;2023-01-31T08:26:23;6;6;
77515;PMS5003;66627;29.424;-98.496;2023-01-31T08:28:49;7;7;
77515;PMS5003;66627;29.424;-98.496;2023-01-31T08:31:16;8;8;
77515;PMS5003;66627;29.424;-98.496;2023-01-31T08:33:40;8;8;
77515;PMS5003;66627;29.424;-98.496;2023-01-31T08:36:09;6;6;
77515;PMS5003;66627;29.424;-98.496;2023-01-31T08:38:31;9;6;
77515;PMS5003;66627;29.424;-98.496;2023-01-31T08:40:57;5;5;
77515;PMS5003;66627;29.424;-98.496;2023-01-31T08:43:21;7;6;
77515;PMS5003;66627;29.424;-98.496;2023-01-31T08:45:46;8;8;
77515;PMS5003;66627;29.424;-98.496;2023-01-31T08:48:11;6;6;
77515;PMS5003;66627;29.424;-98.496;2023-01-31T08:50:37;7;5;
77515;PMS5003;66627;29.424;-98.496;2023-01-31T08:53:03;7;6;
77515;PMS5003;66627;29.424;-98.496;2023-01-31T08:55:28;10;7;
77515;PMS5003;66627;29.424;-98.496;2023-01-31T08:57:53;5;4;
77515;PMS5003;66627;29.424;-98.496;2023-01-31T09:00:19;9;8;
77515;PMS5003;66627;29.424;-98.496;2023-01-31T09:02:44;6;4;
77515;PMS5003;66627;29.424;-98.496;2023-01-31T09:05:10;6;4;
77515;PMS5003;66627;29.424;-98.496;2023-01-31T09:07:34;6;4;
77515;PMS5003;66627;29.424;-98.496;2023-01-31T09:10:00;8;8;
77515;PMS5003;66627;29.424;-98.496;2023-01-31T09:12:25;5;4;
77515;PMS5003;66627;29.424;-98.496;2023-01-31T09:14:51;7;5;
77515;PMS5003;66627;29.424;-98.496;2023-01-31T09:17:16;5;4;
77515;PMS5003;66627;29.424;-98.496;2023-01-31T09:19:41;3;3;
77515;PMS5003;66627;29.424;-98.496;2023-01-31T09:22:07;6;6;
77515;PMS5003;66627;29.424;-98.496;2023-01-31T09:24:32;6;6;
77515;PMS5003;66627;29.424;-98.496;2023-01-31T09:26:58;5;5;
77515;PMS5003;66627;29.424;-98.496;2023-01-31T09:29:23;5;5;
77515;PMS5003;66627;29.424;-98.496;2023-01-31T09:31:49;7;7;
77515;PMS5003;66627;29.424;-98.496;2023-01-31T09:34:14;5;5;
77515;PMS5003;66627;29.424;-98.496;2023-01-31T09:36:39;9;8;
77515;PMS5003;66627;29.424;-98.496;2023-01-31T09:39:05;5;5;
77515;PMS5003;66627;29.424;-98.496;2023-01-31T09:41:31;5;5;
77515;PMS5003;66627;29.424;-98.496;2023-01-31T09:43:57;8;5;
77515;PMS5003;66627;29.424;-98.496;2023-01-31T09:46:22;6;5;
77515;PMS5003;66627;29.424;-98.496;2023-01-31T09:48:47;7;7;
77515;PMS5003;66627;29.424;-98.496;2023-01-31T09:51:11;6;6;
77515;PMS5003;66627;29.424;-98.496;2023-01-31T09:53:37;7;5;
77515;PMS5003;66627;29.424;-98.496;2023-01-31T09:56:06;7;7;
77515;PMS5003;66627;29.424;-98.496;2023-01-31T09:58:29;9;8;
77515;PMS5003;66627;29.424;-98.496;2023-01-31T10:00:55;5;5;
77515;PMS5003;66627;29.424;-98.496;2023-01-31T10:03:23;5;5;
77515;PMS5003;66627;29.424;-98.496;2023-01-31T10:05:45;9;8;
77515;PMS5003;66627;29.424;-98.496;2023-01-31T10:08:12;7;7;
77515;PMS5003;66627;29.424;-98.496;2023-01-31T10:10:36;7;7;
77515;PMS5003;66627;29.424;-98.496;2023-01-31T10:13:02;7;7;
77515;PMS5003;66627;29.424;-98.496;2023-01-31T10:15:28;10;8;
77515;PMS5003;66627;29.424;-98.496;2023-01-31T10:17:52;6;6;
77515;PMS5003;66627;29.424;-98.496;2023-01-31T10:20:18;9;9;
77515;PMS5003;66627;29.424;-98.496;2023-01-31T10:22:43;6;6;
77515;PMS5003;66627;29.424;-98.496;2023-01-31T10:25:12;10;10;
77515;PMS5003;66627;29.424;-98.496;2023-01-31T10:27:39;7;7;
77515;PMS5003;66627;29.424;-98.496;2023-01-31T10:29:58;15;13;
77515;PMS5003;66627;29.424;-98.496;2023-01-31T10:32:24;8;8;
77515;PMS5003;66627;29.424;-98.496;2023-01-31T10:34:51;8;7;
77515;PMS5003;66627;29.424;-98.496;2023-01-31T10:37:15;7;6;
77515;PMS5003;66627;29.424;-98.496;2023-01-31T10:39:41;10;8;
77515;PMS5003;66627;29.424;-98.496;2023-01-31T10:42:09;9;9;
77515;PMS5003;66627;29.424;-98.496;2023-01-31T10:44:33;15;11;
77515;PMS5003;66627;29.424;-98.496;2023-01-31T10:46:56;9;8;
77515;PMS5003;66627;29.424;-98.496;2023-01-31T10:49:22;8;8;
77515;PMS5003;66627;29.424;-98.496;2023-01-31T10:51:51;6;6;
77515;PMS5003;66627;29.424;-98.496;2023-01-31T10:54:15;6;6;
77515;PMS5003;66627;29.424;-98.496;2023-01-31T10:56:39;6;5;
77515;PMS5003;66627;29.424;-98.496;2023-01-31T10:59:03;7;7;
77515;PMS5003;66627;29.424;-98.496;2023-01-31T11:01:29;5;5;
77515;PMS5003;66627;29.424;-98.496;2023-01-31T11:03:54;8;7;
77515;PMS5003;66627;29.424;-98.496;2023-01-31T11:06:19;6;6;
77515;PMS5003;66627;29.424;-98.496;2023-01-31T11:08:46;6;6;
77515;PMS5003;66627;29.424;-98.496;2023-01-31T11:11:11;6;6;
77515;PMS5003;66627;29.424;-98.496;2023-01-31T11:13:35;6;6;
77515;PMS5003;66627;29.424;-98.496;2023-01-31T11:16:00;6;6;
77515;PMS5003;66627;29.424;-98.496;2023-01-31T11:18:27;6;6;
77515;PMS5003;66627;29.424;-98.496;2023-01-31T11:23:16;6;6;
77515;PMS5003;66627;29.424;-98.496;2023-01-31T11:25:44;8;6;
77515;PMS5003;66627;29.424;-98.496;2023-01-31T11:30:33;10;8;
77515;PMS5003;66627;29.424;-98.496;2023-01-31T11:32:57;9;9;
77515;PMS5003;66627;29.424;-98.496;2023-01-31T11:35:24;6;6;
77515;PMS5003;66627;29.424;-98.496;2023-01-31T11:37:48;6;6;
77515;PMS5003;66627;29.424;-98.496;2023-01-31T11:40:19;8;7;
77515;PMS5003;66627;29.424;-98.496;2023-01-31T11:45:15;7;6;
77515;PMS5003;66627;29.424;-98.496;2023-01-31T11:47:32;6;6;
77515;PMS5003;66627;29.424;-98.496;2023-01-31T11:49:55;9;7;
77515;PMS5003;66627;29.424;-98.496;2023-01-31T11:52:20;8;7;
77515;PMS5003;66627;29.424;-98.496;2023-01-31T11:54:46;9;7;
77515;PMS5003;66627;29.424;-98.496;2023-01-31T11:57:14;8;8;
77515;PMS5003;66627;29.424;-98.496;2023-01-31T11:59:36;10;7;
77515;PMS5003;66627;29.424;-98.496;2023-01-31T12:02:02;11;9;
77515;PMS5003;66627;29.424;-98.496;2023-01-31T12:04:29;9;8;
77515;PMS5003;66627;29.424;-98.496;2023-01-31T12:06:55;9;8;
77515;PMS5003;66627;29.424;-98.496;2023-01-31T12:09:19;5;5;
77515;PMS5003;66627;29.424;-98.496;2023-01-31T12:11:48;6;6;
77515;PMS5003;66627;29.424;-98.496;2023-01-31T12:14:10;8;7;
77515;PMS5003;66627;29.424;-98.496;2023-01-31T12:16:34;8;6;
77515;PMS5003;66627;29.424;-98.496;2023-01-31T12:19:04;6;6;
77515;PMS5003;66627;29.424;-98.496;2023-01-31T12:21:28;7;6;
77515;PMS5003;66627;29.424;-98.496;2023-01-31T12:23:52;8;8;
77515;PMS5003;66627;29.424;-98.496;2023-01-31T12:26:16;15;13;
77515;PMS5003;66627;29.424;-98.496;2023-01-31T12:28:47;11;9;
77515;PMS5003;66627;29.424;-98.496;2023-01-31T12:31:10;9;9;
77515;PMS5003;66627;29.424;-98.496;2023-01-31T12:33:34;7;7;
77515;PMS5003;66627;29.424;-98.496;2023-01-31T12:36:02;7;7;
77515;PMS5003;66627;29.424;-98.496;2023-01-31T12:38:27;10;8;
77515;PMS5003;66627;29.424;-98.496;2023-01-31T12:40:50;11;8;
77515;PMS5003;66627;29.424;-98.496;2023-01-31T12:43:17;7;7;
77515;PMS5003;66627;29.424;-98.496;2023-01-31T12:45:50;6;6;
77515;PMS5003;66627;29.424;-98.496;2023-01-31T12:50:30;10;8;
77515;PMS5003;66627;29.424;-98.496;2023-01-31T12:55:23;8;6;
77515;PMS5003;66627;29.424;-98.496;2023-01-31T12:57:47;7;7;
77515;PMS5003;66627;29.424;-98.496;2023-01-31T13:00:14;6;6;
77515;PMS5003;66627;29.424;-98.496;2023-01-31T13:02:39;8;8;
77515;PMS5003;66627;29.424;-98.496;2023-01-31T13:05:03;6;6;
77515;PMS5003;66627;29.424;-98.496;2023-01-31T13:07:29;9;8;
77515;PMS5003;66627;29.424;-98.496;2023-01-31T13:09:52;6;6;
77515;PMS5003;66627;29.424;-98.496;2023-01-31T13:12:19;5;4;
77515;PMS5003;66627;29.424;-98.496;2023-01-31T13:14:46;7;7;
77515;PMS5003;66627;29.424;-98.496;2023-01-31T13:17:10;5;5;
77515;PMS5003;66627;29.424;-98.496;2023-01-31T13:19:35;7;7;
77515;PMS5003;66627;29.424;-98.496;2023-01-31T13:22:01;5;5;
77515;PMS5003;66627;29.424;-98.496;2023-01-31T13:24:25;4;4;
77515;PMS5003;66627;29.424;-98.496;2023-01-31T13:26:51;5;5;
77515;PMS5003;66627;29.424;-98.496;2023-01-31T13:29:17;6;6;
77515;PMS5003;66627;29.424;-98.496;2023-01-31T13:31:43;7;7;
77515;PMS5003;66627;29.424;-98.496;2023-01-31T13:34:08;6;6;
77515;PMS5003;66627;29.424;-98.496;2023-01-31T13:36:32;4;4;
77515;PMS5003;66627;29.424;-98.496;2023-01-31T13:38:57;6;6;
77515;PMS5003;66627;29.424;-98.496;2023-01-31T13:41:25;6;6;
77515;PMS5003;66627;29.424;-98.496;2023-01-31T13:43:47;5;5;
77515;PMS5003;66627;29.424;-98.496;2023-01-31T13:46:13;5;5;
77515;PMS5003;66627;29.424;-98.496;2023-01-31T13:48:39;4;4;
77515;PMS5003;66627;29.424;-98.496;2023-01-31T13:51:06;6;6;
77515;PMS5003;66627;29.424;-98.496;2023-01-31T13:53:30;4;3;
77515;PMS5003;66627;29.424;-98.496;2023-01-31T13:55:54;6;4;
77515;PMS5003;66627;29.424;-98.496;2023-01-31T13:58:21;3;3;
77515;PMS5003;66627;29.424;-98.496;2023-01-31T14:00:46;3;3;
77515;PMS5003;66627;29.424;-98.496;2023-01-31T14:03:11;6;5;
77515;PMS5003;66627;29.424;-98.496;2023-01-31T14:10:27;3;3;
77515;PMS5003;66627;29.424;-98.496;2023-01-31T14:22:34;3;3;
77515;PMS5003;66627;29.424;-98.496;2023-01-31T14:24:59;5;5;
77515;PMS5003;66627;29.424;-98.496;2023-01-31T14:27:26;6;5;
77515;PMS5003;66627;29.424;-98.496;2023-01-31T14:29:55;3;3;
77515;PMS5003;66627;29.424;-98.496;2023-01-31T14:32:15;4;2;
77515;PMS5003;66627;29.424;-98.496;2023-01-31T14:34:40;2;2;
77515;PMS5003;66627;29.424;-98.496;2023-01-31T14:37:08;2;1;
77515;PMS5003;66627;29.424;-98.496;2023-01-31T14:44:24;3;3;
77515;PMS5003;66627;29.424;-98.496;2023-01-31T14:46:52;2;2;
77515;PMS5003;66627;29.424;-98.496;2023-01-31T14:49:19;3;3;
77515;PMS5003;66627;29.424;-98.496;2023-01-31T14:51:42;2;2;
77515;PMS5003;66627;29.424;-98.496;2023-01-31T14:54:07;3;3;
77515;PMS5003;66627;29.424;-98.496;2023-01-31T14:58:54;2;2;
77515;PMS5003;66627;29.424;-98.496;2023-01-31T15:01:20;3;3;
77515;PMS5003;66627;29.424;-98.496;2023-01-31T15:03:49;18;11;
77515;PMS5003;66627;29.424;-98.496;2023-01-31T15:06:11;2;2;
77515;PMS5003;66627;29.424;-98.496;2023-01-31T15:08:38;3;3;
77515;PMS5003;66627;29.424;-98.496;2023-01-31T15:11:01;5;3;
77515;PMS5003;66627;29.424;-98.496;2023-01-31T15:15:52;3;3;
77515;PMS5003;66627;29.424;-98.496;2023-01-31T15:18:18;3;2;
77515;PMS5003;66627;29.424;-98.496;2023-01-31T15:20:44;1;1;
77515;PMS5003;66627;29.424;-98.496;2023-01-31T15:23:13;2;2;
77515;PMS5003;66627;29.424;-98.496;2023-01-31T15:25:34;5;3;
77515;PMS5003;66627;29.424;-98.496;2023-01-31T15:30:25;2;2;
77515;PMS5003;66627;29.424;-98.496;2023-01-31T15:32:50;2;2;
77515;PMS5003;66627;29.424;-98.496;2023-01-31T15:35:16;3;3;
77515;PMS5003;66627;29.424;-98.496;2023-01-31T15:37:40;3;3;
77515;PMS5003;66627;29.424;-98.496;2023-01-31T15:40:11;2;2;
77515;PMS5003;66627;29.424;-98.496;2023-01-31T15:42:31;3;3;
77515;PMS5003;66627;29.424;-98.496;2023-01-31T15:47:22;2;2;
77515;PMS5003;66627;29.424;-98.496;2023-01-31T15:49:47;4;4;
77515;PMS5003;66627;29.424;-98.496;2023-01-31T15:52:14;3;3;
77515;PMS5003;66627;29.424;-98.496;2023-01-31T15:54:38;3;3;
77515;PMS5003;66627;29.424;-98.496;2023-01-31T15:57:04;5;5;
77515;PMS5003;66627;29.424;-98.496;2023-01-31T15:59:29;3;3;
77515;PMS5003;66627;29.424;-98.496;2023-01-31T16:01:55;4;4;
77515;PMS5003;66627;29.424;-98.496;2023-01-31T16:04:19;3;3;
77515;PMS5003;66627;29.424;-98.496;2023-01-31T16:06:45;3;3;
77515;PMS5003;66627;29.424;-98.496;2023-01-31T16:11:36;5;5;
77515;PMS5003;66627;29.424;-98.496;2023-01-31T16:14:01;3;3;
77515;PMS5003;66627;29.424;-98.496;2023-01-31T16:16:27;4;4;
77515;PMS5003;66627;29.424;-98.496;2023-01-31T16:18:52;4;4;
77515;PMS5003;66627;29.424;-98.496;2023-01-31T16:23:42;5;5;
77515;PMS5003;66627;29.424;-98.496;2023-01-31T16:26:09;3;3;
77515;PMS5003;66627;29.424;-98.496;2023-01-31T16:28:36;4;4;
77515;PMS5003;66627;29.424;-98.496;2023-01-31T16:31:04;4;4;
77515;PMS5003;66627;29.424;-98.496;2023-01-31T16:33:24;4;4;
77515;PMS5003;66627;29.424;-98.496;2023-01-31T16:35:59;3;3;
77515;PMS5003;66627;29.424;-98.496;2023-01-31T16:38:16;3;3;
77515;PMS5003;66627;29.424;-98.496;2023-01-31T16:40:44;4;4;
77515;PMS5003;66627;29.424;-98.496;2023-01-31T16:43:08;4;4;
77515;PMS5003;66627;29.424;-98.496;2023-01-31T16:45:32;6;4;
77515;PMS5003;66627;29.424;-98.496;2023-01-31T16:50:24;3;3;
77515;PMS5003;66627;29.424;-98.496;2023-01-31T16:52:48;3;3;
77515;PMS5003;66627;29.424;-98.496;2023-01-31T16:55:13;3;3;
77515;PMS5003;66627;29.424;-98.496;2023-01-31T16:57:38;4;4;